sensor_id;sensor_type;location;lat;lon;timestamp;P1;durP1;ratioP1;P2;durP2;ratioP2
33954;SDS011;20233;50.804;7.126;2024-02-04T00:00:22;1.02;;;0.20;;
33954;SDS011;20233;50.804;7.126;2024-02-04T00:02:47;0.55;;;0.10;;
33954;SDS011;20233;50.804;7.126;2024-02-04T00:05:13;1.92;;;0.30;;
33954;SDS011;20233;50.804;7.126;2024-02-04T00:07:39;0.95;;;0.20;;
33954;SDS011;20233;50.804;7.126;2024-02-04T00:10:04;0.40;;;0.10;;
33954;SDS011;20233;50.804;7.126;2024-02-04T00:12:30;1.25;;;0.10;;
33954;SDS011;20233;50.804;7.126;2024-02-04T00:14:56;0.60;;;0.10;;
33954;SDS011;20233;50.804;7.126;2024-02-04T00:17:21;0.52;;;0.10;;
33954;SDS011;20233;50.804;7.126;2024-02-04T00:19:47;0.80;;;0.10;;
33954;SDS011;20233;50.804;7.126;2024-02-04T00:22:12;1.98;;;0.10;;
33954;SDS011;20233;50.804;7.126;2024-02-04T00:24:38;0.63;;;0.10;;
33954;SDS011;20233;50.804;7.126;2024-02-04T00:27:04;0.85;;;0.20;;
33954;SDS011;20233;50.804;7.126;2024-02-04T00:29:29;1.60;;;0.10;;
33954;SDS011;20233;50.804;7.126;2024-02-04T00:31:54;0.47;;;0.10;;
33954;SDS011;20233;50.804;7.126;2024-02-04T00:34:20;1.77;;;0.25;;
33954;SDS011;20233;50.804;7.126;2024-02-04T00:36:46;0.90;;;0.20;;
33954;SDS011;20233;50.804;7.126;2024-02-04T00:39:12;1.52;;;0.10;;
33954;SDS011;20233;50.804;7.126;2024-02-04T00:41:37;1.67;;;0.10;;
33954;SDS011;20233;50.804;7.126;2024-02-04T00:44:03;1.98;;;0.10;;
33954;SDS011;20233;50.804;7.126;2024-02-04T00:46:28;0.50;;;0.03;;
33954;SDS011;20233;50.804;7.126;2024-02-04T00:48:54;0.38;;;0.08;;
33954;SDS011;20233;50.804;7.126;2024-02-04T00:51:19;1.02;;;0.10;;
33954;SDS011;20233;50.804;7.126;2024-02-04T00:53:45;1.08;;;0.03;;
33954;SDS011;20233;50.804;7.126;2024-02-04T00:56:11;1.85;;;0.00;;
33954;SDS011;20233;50.804;7.126;2024-02-04T00:58:37;1.33;;;0.13;;
33954;SDS011;20233;50.804;7.126;2024-02-04T01:01:04;1.80;;;0.10;;
33954;SDS011;20233;50.804;7.126;2024-02-04T01:03:30;0.30;;;0.00;;
33954;SDS011;20233;50.804;7.126;2024-02-04T01:05:56;0.30;;;0.10;;
33954;SDS011;20233;50.804;7.126;2024-02-04T01:08:22;0.47;;;0.10;;
33954;SDS011;20233;50.804;7.126;2024-02-04T01:10:48;0.50;;;0.10;;
33954;SDS011;20233;50.804;7.126;2024-02-04T01:13:15;0.50;;;0.08;;
33954;SDS011;20233;50.804;7.126;2024-02-04T01:15:41;0.73;;;0.10;;
33954;SDS011;20233;50.804;7.126;2024-02-04T01:18:07;0.82;;;0.10;;
33954;SDS011;20233;50.804;7.126;2024-02-04T01:20:32;0.30;;;0.10;;
33954;SDS011;20233;50.804;7.126;2024-02-04T01:22:58;1.10;;;0.20;;
33954;SDS011;20233;50.804;7.126;2024-02-04T01:25:23;0.68;;;0.00;;
33954;SDS011;20233;50.804;7.126;2024-02-04T01:27:49;0.70;;;0.00;;
33954;SDS011;20233;50.804;7.126;2024-02-04T01:30:15;0.68;;;0.00;;
33954;SDS011;20233;50.804;7.126;2024-02-04T01:32:40;0.10;;;0.00;;
33954;SDS011;20233;50.804;7.126;2024-02-04T01:35:06;0.13;;;0.00;;
33954;SDS011;20233;50.804;7.126;2024-02-04T01:37:32;0.10;;;0.00;;
33954;SDS011;20233;50.804;7.126;2024-02-04T01:39:57;0.40;;;0.00;;
33954;SDS011;20233;50.804;7.126;2024-02-04T01:42:23;0.28;;;0.00;;
33954;SDS011;20233;50.804;7.126;2024-02-04T01:44:48;0.10;;;0.00;;
33954;SDS011;20233;50.804;7.126;2024-02-04T01:47:14;0.08;;;0.00;;
33954;SDS011;20233;50.804;7.126;2024-02-04T01:49:40;0.43;;;0.00;;
33954;SDS011;20233;50.804;7.126;2024-02-04T01:52:05;0.10;;;0.00;;
33954;SDS011;20233;50.804;7.126;2024-02-04T01:54:33;0.10;;;0.00;;
33954;SDS011;20233;50.804;7.126;2024-02-04T01:56:59;0.88;;;0.00;;
33954;SDS011;20233;50.804;7.126;2024-02-04T01:59:29;0.00;;;0.00;;
33954;SDS011;20233;50.804;7.126;2024-02-04T02:01:56;1.35;;;0.00;;
33954;SDS011;20233;50.804;7.126;2024-02-04T02:04:25;1.08;;;0.00;;
33954;SDS011;20233;50.804;7.126;2024-02-04T02:06:54;0.95;;;0.00;;
33954;SDS011;20233;50.804;7.126;2024-02-04T02:09:20;0.03;;;0.00;;
33954;SDS011;20233;50.804;7.126;2024-02-04T02:11:47;0.10;;;0.00;;
33954;SDS011;20233;50.804;7.126;2024-02-04T02:14:23;1.85;;;0.00;;
33954;SDS011;20233;50.804;7.126;2024-02-04T02:16:53;0.20;;;0.00;;
33954;SDS011;20233;50.804;7.126;2024-02-04T02:19:31;0.30;;;0.00;;
33954;SDS011;20233;50.804;7.126;2024-02-04T02:22:22;0.77;;;0.00;;
33954;SDS011;20233;50.804;7.126;2024-02-04T02:25:03;0.35;;;0.00;;
33954;SDS011;20233;50.804;7.126;2024-02-04T02:27:30;0.00;;;0.00;;
33954;SDS011;20233;50.804;7.126;2024-02-04T02:29:56;0.08;;;0.00;;
33954;SDS011;20233;50.804;7.126;2024-02-04T02:32:21;2.50;;;0.00;;
33954;SDS011;20233;50.804;7.126;2024-02-04T02:34:47;0.00;;;0.00;;
33954;SDS011;20233;50.804;7.126;2024-02-04T02:40:03;0.20;;;0.00;;
33954;SDS011;20233;50.804;7.126;2024-02-04T02:42:38;0.98;;;0.00;;
33954;SDS011;20233;50.804;7.126;2024-02-04T02:45:08;1.08;;;0.00;;
33954;SDS011;20233;50.804;7.126;2024-02-04T02:47:36;0.00;;;0.00;;
33954;SDS011;20233;50.804;7.126;2024-02-04T02:50:04;1.33;;;0.00;;
33954;SDS011;20233;50.804;7.126;2024-02-04T02:52:30;0.17;;;0.00;;
33954;SDS011;20233;50.804;7.126;2024-02-04T02:54:56;0.30;;;0.00;;
33954;SDS011;20233;50.804;7.126;2024-02-04T02:57:21;0.10;;;0.00;;
33954;SDS011;20233;50.804;7.126;2024-02-04T02:59:47;0.05;;;0.00;;
33954;SDS011;20233;50.804;7.126;2024-02-04T03:02:12;0.00;;;0.00;;
33954;SDS011;20233;50.804;7.126;2024-02-04T03:04:38;0.68;;;0.00;;
33954;SDS011;20233;50.804;7.126;2024-02-04T03:07:04;0.63;;;0.00;;
33954;SDS011;20233;50.804;7.126;2024-02-04T03:09:31;1.15;;;0.00;;
33954;SDS011;20233;50.804;7.126;2024-02-04T03:11:57;0.50;;;0.00;;
33954;SDS011;20233;50.804;7.126;2024-02-04T03:14:22;0.65;;;0.00;;
33954;SDS011;20233;50.804;7.126;2024-02-04T03:16:48;0.00;;;0.00;;
33954;SDS011;20233;50.804;7.126;2024-02-04T03:19:13;0.52;;;0.00;;
33954;SDS011;20233;50.804;7.126;2024-02-04T03:21:39;0.08;;;0.00;;
33954;SDS011;20233;50.804;7.126;2024-02-04T03:24:04;0.35;;;0.00;;
33954;SDS011;20233;50.804;7.126;2024-02-04T03:26:30;0.25;;;0.15;;
33954;SDS011;20233;50.804;7.126;2024-02-04T03:28:56;1.08;;;0.00;;
33954;SDS011;20233;50.804;7.126;2024-02-04T03:31:24;1.92;;;0.00;;
33954;SDS011;20233;50.804;7.126;2024-02-04T03:33:50;0.32;;;0.00;;
33954;SDS011;20233;50.804;7.126;2024-02-04T03:36:18;0.73;;;0.10;;
33954;SDS011;20233;50.804;7.126;2024-02-04T03:38:44;0.47;;;0.00;;
33954;SDS011;20233;50.804;7.126;2024-02-04T03:41:10;0.30;;;0.00;;
33954;SDS011;20233;50.804;7.126;2024-02-04T03:43:36;0.30;;;0.00;;
33954;SDS011;20233;50.804;7.126;2024-02-04T03:46:01;0.38;;;0.10;;
33954;SDS011;20233;50.804;7.126;2024-02-04T03:48:27;0.30;;;0.10;;
33954;SDS011;20233;50.804;7.126;2024-02-04T03:50:52;0.40;;;0.10;;
33954;SDS011;20233;50.804;7.126;2024-02-04T03:53:18;0.35;;;0.10;;
33954;SDS011;20233;50.804;7.126;2024-02-04T03:55:44;0.50;;;0.10;;
33954;SDS011;20233;50.804;7.126;2024-02-04T03:58:09;0.40;;;0.20;;
33954;SDS011;20233;50.804;7.126;2024-02-04T04:00:35;1.75;;;0.20;;
33954;SDS011;20233;50.804;7.126;2024-02-04T04:03:00;1.38;;;0.30;;
33954;SDS011;20233;50.804;7.126;2024-02-04T04:05:26;0.95;;;0.20;;
33954;SDS011;20233;50.804;7.126;2024-02-04T04:07:51;1.58;;;0.30;;
33954;SDS011;20233;50.804;7.126;2024-02-04T04:10:17;1.48;;;0.43;;
33954;SDS011;20233;50.804;7.126;2024-02-04T04:12:42;1.23;;;0.50;;
33954;SDS011;20233;50.804;7.126;2024-02-04T04:15:08;1.58;;;0.55;;
33954;SDS011;20233;50.804;7.126;2024-02-04T04:17:33;1.58;;;0.50;;
33954;SDS011;20233;50.804;7.126;2024-02-04T04:19:59;2.13;;;0.60;;
33954;SDS011;20233;50.804;7.126;2024-02-04T04:22:24;1.70;;;0.40;;
33954;SDS011;20233;50.804;7.126;2024-02-04T04:24:50;2.10;;;0.50;;
33954;SDS011;20233;50.804;7.126;2024-02-04T04:27:15;2.63;;;0.70;;
33954;SDS011;20233;50.804;7.126;2024-02-04T04:29:41;1.77;;;0.68;;
33954;SDS011;20233;50.804;7.126;2024-02-04T04:32:06;1.25;;;0.60;;
33954;SDS011;20233;50.804;7.126;2024-02-04T04:34:32;1.30;;;0.60;;
33954;SDS011;20233;50.804;7.126;2024-02-04T04:36:57;1.55;;;0.75;;
33954;SDS011;20233;50.804;7.126;2024-02-04T04:39:23;1.63;;;0.70;;
33954;SDS011;20233;50.804;7.126;2024-02-04T04:41:48;2.35;;;0.95;;
33954;SDS011;20233;50.804;7.126;2024-02-04T04:44:14;2.45;;;0.90;;
33954;SDS011;20233;50.804;7.126;2024-02-04T04:46:40;2.10;;;0.75;;
33954;SDS011;20233;50.804;7.126;2024-02-04T04:49:05;2.45;;;1.20;;
33954;SDS011;20233;50.804;7.126;2024-02-04T04:51:31;2.17;;;1.17;;
33954;SDS011;20233;50.804;7.126;2024-02-04T04:53:57;2.30;;;1.00;;
33954;SDS011;20233;50.804;7.126;2024-02-04T04:56:23;2.35;;;1.23;;
33954;SDS011;20233;50.804;7.126;2024-02-04T04:58:48;3.17;;;0.95;;
33954;SDS011;20233;50.804;7.126;2024-02-04T05:01:14;1.60;;;0.63;;
33954;SDS011;20233;50.804;7.126;2024-02-04T05:03:40;2.35;;;1.10;;
33954;SDS011;20233;50.804;7.126;2024-02-04T05:06:06;2.20;;;0.90;;
33954;SDS011;20233;50.804;7.126;2024-02-04T05:08:31;2.10;;;1.02;;
33954;SDS011;20233;50.804;7.126;2024-02-04T05:10:57;2.00;;;0.80;;
33954;SDS011;20233;50.804;7.126;2024-02-04T05:13:22;2.03;;;0.85;;
33954;SDS011;20233;50.804;7.126;2024-02-04T05:15:48;3.10;;;1.38;;
33954;SDS011;20233;50.804;7.126;2024-02-04T05:18:13;3.25;;;1.65;;
33954;SDS011;20233;50.804;7.126;2024-02-04T05:20:39;3.65;;;1.65;;
33954;SDS011;20233;50.804;7.126;2024-02-04T05:23:04;2.50;;;1.60;;
33954;SDS011;20233;50.804;7.126;2024-02-04T05:25:30;3.65;;;1.67;;
33954;SDS011;20233;50.804;7.126;2024-02-04T05:27:56;4.82;;;2.00;;
33954;SDS011;20233;50.804;7.126;2024-02-04T05:30:22;3.15;;;1.80;;
33954;SDS011;20233;50.804;7.126;2024-02-04T05:32:47;2.90;;;1.70;;
33954;SDS011;20233;50.804;7.126;2024-02-04T05:35:13;3.00;;;1.70;;
33954;SDS011;20233;50.804;7.126;2024-02-04T05:37:38;3.72;;;2.03;;
33954;SDS011;20233;50.804;7.126;2024-02-04T05:40:04;4.47;;;1.80;;
33954;SDS011;20233;50.804;7.126;2024-02-04T05:42:30;5.93;;;1.92;;
33954;SDS011;20233;50.804;7.126;2024-02-04T05:44:57;2.70;;;1.70;;
33954;SDS011;20233;50.804;7.126;2024-02-04T05:47:22;2.88;;;1.90;;
33954;SDS011;20233;50.804;7.126;2024-02-04T05:49:48;3.72;;;2.30;;
33954;SDS011;20233;50.804;7.126;2024-02-04T05:52:14;3.53;;;2.17;;
33954;SDS011;20233;50.804;7.126;2024-02-04T05:54:40;3.85;;;2.35;;
33954;SDS011;20233;50.804;7.126;2024-02-04T05:57:05;3.25;;;1.77;;
33954;SDS011;20233;50.804;7.126;2024-02-04T05:59:32;2.88;;;1.83;;
33954;SDS011;20233;50.804;7.126;2024-02-04T06:01:57;3.55;;;1.90;;
33954;SDS011;20233;50.804;7.126;2024-02-04T06:04:23;5.07;;;2.08;;
33954;SDS011;20233;50.804;7.126;2024-02-04T06:06:48;3.13;;;1.73;;
33954;SDS011;20233;50.804;7.126;2024-02-04T06:09:14;2.95;;;1.85;;
33954;SDS011;20233;50.804;7.126;2024-02-04T06:11:40;2.92;;;1.60;;
33954;SDS011;20233;50.804;7.126;2024-02-04T06:14:05;2.65;;;1.55;;
33954;SDS011;20233;50.804;7.126;2024-02-04T06:16:31;3.45;;;1.63;;
33954;SDS011;20233;50.804;7.126;2024-02-04T06:18:59;9.40;;;5.40;;
33954;SDS011;20233;50.804;7.126;2024-02-04T06:21:24;5.30;;;2.75;;
33954;SDS011;20233;50.804;7.126;2024-02-04T06:23:50;3.92;;;2.75;;
33954;SDS011;20233;50.804;7.126;2024-02-04T06:26:16;4.55;;;2.40;;
33954;SDS011;20233;50.804;7.126;2024-02-04T06:28:41;4.45;;;1.70;;
33954;SDS011;20233;50.804;7.126;2024-02-04T06:31:11;2.67;;;2.05;;
33954;SDS011;20233;50.804;7.126;2024-02-04T06:33:36;3.92;;;2.10;;
33954;SDS011;20233;50.804;7.126;2024-02-04T06:36:02;4.78;;;2.45;;
33954;SDS011;20233;50.804;7.126;2024-02-04T06:38:28;3.97;;;1.95;;
33954;SDS011;20233;50.804;7.126;2024-02-04T06:40:53;3.85;;;1.95;;
33954;SDS011;20233;50.804;7.126;2024-02-04T06:43:19;6.68;;;2.78;;
33954;SDS011;20233;50.804;7.126;2024-02-04T06:45:44;4.28;;;2.10;;
33954;SDS011;20233;50.804;7.126;2024-02-04T06:48:10;6.40;;;2.97;;
33954;SDS011;20233;50.804;7.126;2024-02-04T06:50:36;4.00;;;2.50;;
33954;SDS011;20233;50.804;7.126;2024-02-04T06:53:02;4.75;;;2.40;;
33954;SDS011;20233;50.804;7.126;2024-02-04T06:55:28;4.97;;;2.47;;
33954;SDS011;20233;50.804;7.126;2024-02-04T06:57:53;4.50;;;2.08;;
33954;SDS011;20233;50.804;7.126;2024-02-04T07:00:19;2.72;;;1.73;;
33954;SDS011;20233;50.804;7.126;2024-02-04T07:02:46;2.75;;;0.82;;
33954;SDS011;20233;50.804;7.126;2024-02-04T07:05:12;1.20;;;0.40;;
33954;SDS011;20233;50.804;7.126;2024-02-04T07:07:37;0.77;;;0.20;;
33954;SDS011;20233;50.804;7.126;2024-02-04T07:10:03;1.00;;;0.30;;
33954;SDS011;20233;50.804;7.126;2024-02-04T07:12:28;1.48;;;0.20;;
33954;SDS011;20233;50.804;7.126;2024-02-04T07:14:54;1.63;;;0.10;;
33954;SDS011;20233;50.804;7.126;2024-02-04T07:17:20;0.65;;;0.08;;
33954;SDS011;20233;50.804;7.126;2024-02-04T07:19:46;1.77;;;0.40;;
33954;SDS011;20233;50.804;7.126;2024-02-04T07:22:11;0.80;;;0.10;;
33954;SDS011;20233;50.804;7.126;2024-02-04T07:24:37;0.43;;;0.10;;
33954;SDS011;20233;50.804;7.126;2024-02-04T07:27:02;0.88;;;0.10;;
33954;SDS011;20233;50.804;7.126;2024-02-04T07:29:28;0.55;;;0.00;;
33954;SDS011;20233;50.804;7.126;2024-02-04T07:31:53;0.60;;;0.10;;
33954;SDS011;20233;50.804;7.126;2024-02-04T07:34:19;0.20;;;0.00;;
33954;SDS011;20233;50.804;7.126;2024-02-04T07:36:44;0.77;;;0.03;;
33954;SDS011;20233;50.804;7.126;2024-02-04T07:39:10;1.15;;;0.10;;
33954;SDS011;20233;50.804;7.126;2024-02-04T07:41:36;0.45;;;0.00;;
33954;SDS011;20233;50.804;7.126;2024-02-04T07:44:01;0.22;;;0.00;;
33954;SDS011;20233;50.804;7.126;2024-02-04T07:46:27;1.30;;;0.00;;
33954;SDS011;20233;50.804;7.126;2024-02-04T07:48:52;0.47;;;0.00;;
33954;SDS011;20233;50.804;7.126;2024-02-04T07:51:18;0.80;;;0.00;;
33954;SDS011;20233;50.804;7.126;2024-02-04T07:53:45;0.30;;;0.10;;
33954;SDS011;20233;50.804;7.126;2024-02-04T07:56:10;3.38;;;0.05;;
33954;SDS011;20233;50.804;7.126;2024-02-04T07:58:36;0.03;;;0.00;;
33954;SDS011;20233;50.804;7.126;2024-02-04T08:01:01;1.85;;;0.35;;
33954;SDS011;20233;50.804;7.126;2024-02-04T08:03:27;0.10;;;0.00;;
33954;SDS011;20233;50.804;7.126;2024-02-04T08:05:53;2.17;;;0.28;;
33954;SDS011;20233;50.804;7.126;2024-02-04T08:08:18;0.10;;;0.00;;
33954;SDS011;20233;50.804;7.126;2024-02-04T08:10:44;1.85;;;0.00;;
33954;SDS011;20233;50.804;7.126;2024-02-04T08:13:09;0.40;;;0.00;;
33954;SDS011;20233;50.804;7.126;2024-02-04T08:15:35;1.00;;;0.00;;
33954;SDS011;20233;50.804;7.126;2024-02-04T08:18:00;0.50;;;0.00;;
33954;SDS011;20233;50.804;7.126;2024-02-04T08:20:26;0.45;;;0.00;;
33954;SDS011;20233;50.804;7.126;2024-02-04T08:22:52;0.10;;;0.00;;
33954;SDS011;20233;50.804;7.126;2024-02-04T08:25:17;0.10;;;0.00;;
33954;SDS011;20233;50.804;7.126;2024-02-04T08:27:43;1.00;;;0.00;;
33954;SDS011;20233;50.804;7.126;2024-02-04T08:30:09;0.10;;;0.00;;
33954;SDS011;20233;50.804;7.126;2024-02-04T08:32:36;0.20;;;0.00;;
33954;SDS011;20233;50.804;7.126;2024-02-04T08:35:02;0.55;;;0.00;;
33954;SDS011;20233;50.804;7.126;2024-02-04T08:37:28;0.85;;;0.10;;
33954;SDS011;20233;50.804;7.126;2024-02-04T08:39:54;0.52;;;0.00;;
33954;SDS011;20233;50.804;7.126;2024-02-04T08:42:20;0.10;;;0.00;;
33954;SDS011;20233;50.804;7.126;2024-02-04T08:44:45;0.30;;;0.00;;
33954;SDS011;20233;50.804;7.126;2024-02-04T08:47:12;3.00;;;0.20;;
33954;SDS011;20233;50.804;7.126;2024-02-04T08:49:39;1.75;;;0.20;;
33954;SDS011;20233;50.804;7.126;2024-02-04T08:52:05;0.52;;;0.20;;
33954;SDS011;20233;50.804;7.126;2024-02-04T08:54:30;2.30;;;0.57;;
33954;SDS011;20233;50.804;7.126;2024-02-04T08:56:56;1.25;;;0.60;;
33954;SDS011;20233;50.804;7.126;2024-02-04T08:59:21;1.33;;;0.32;;
33954;SDS011;20233;50.804;7.126;2024-02-04T09:01:49;0.95;;;0.20;;
33954;SDS011;20233;50.804;7.126;2024-02-04T09:04:15;1.38;;;0.35;;
33954;SDS011;20233;50.804;7.126;2024-02-04T09:06:40;1.00;;;0.20;;
33954;SDS011;20233;50.804;7.126;2024-02-04T09:09:06;0.77;;;0.20;;
33954;SDS011;20233;50.804;7.126;2024-02-04T09:11:33;1.40;;;0.17;;
33954;SDS011;20233;50.804;7.126;2024-02-04T09:13:59;0.95;;;0.15;;
33954;SDS011;20233;50.804;7.126;2024-02-04T09:16:24;0.20;;;0.10;;
33954;SDS011;20233;50.804;7.126;2024-02-04T09:18:50;2.45;;;0.20;;
33954;SDS011;20233;50.804;7.126;2024-02-04T09:21:15;0.98;;;0.20;;
33954;SDS011;20233;50.804;7.126;2024-02-04T09:23:41;1.65;;;0.32;;
33954;SDS011;20233;50.804;7.126;2024-02-04T09:26:07;0.30;;;0.10;;
33954;SDS011;20233;50.804;7.126;2024-02-04T09:28:32;0.32;;;0.10;;
33954;SDS011;20233;50.804;7.126;2024-02-04T09:30:58;0.50;;;0.10;;
33954;SDS011;20233;50.804;7.126;2024-02-04T09:33:23;0.30;;;0.10;;
33954;SDS011;20233;50.804;7.126;2024-02-04T09:35:49;1.58;;;0.10;;
33954;SDS011;20233;50.804;7.126;2024-02-04T09:38:15;0.40;;;0.10;;
33954;SDS011;20233;50.804;7.126;2024-02-04T09:40:41;0.30;;;0.10;;
33954;SDS011;20233;50.804;7.126;2024-02-04T09:43:06;0.20;;;0.00;;
33954;SDS011;20233;50.804;7.126;2024-02-04T09:45:33;0.20;;;0.08;;
33954;SDS011;20233;50.804;7.126;2024-02-04T09:47:59;0.80;;;0.03;;
33954;SDS011;20233;50.804;7.126;2024-02-04T09:50:27;2.38;;;0.00;;
33954;SDS011;20233;50.804;7.126;2024-02-04T09:52:55;0.03;;;0.00;;
33954;SDS011;20233;50.804;7.126;2024-02-04T09:55:24;0.30;;;0.00;;
33954;SDS011;20233;50.804;7.126;2024-02-04T09:57:51;1.80;;;0.63;;
33954;SDS011;20233;50.804;7.126;2024-02-04T10:00:18;0.10;;;0.00;;
33954;SDS011;20233;50.804;7.126;2024-02-04T10:02:47;0.25;;;0.00;;
33954;SDS011;20233;50.804;7.126;2024-02-04T10:05:14;1.00;;;0.00;;
33954;SDS011;20233;50.804;7.126;2024-02-04T10:07:40;0.10;;;0.00;;
33954;SDS011;20233;50.804;7.126;2024-02-04T10:10:06;0.30;;;0.00;;
33954;SDS011;20233;50.804;7.126;2024-02-04T10:12:32;0.30;;;0.10;;
33954;SDS011;20233;50.804;7.126;2024-02-04T10:14:58;1.02;;;0.10;;
33954;SDS011;20233;50.804;7.126;2024-02-04T10:17:24;0.35;;;0.10;;
33954;SDS011;20233;50.804;7.126;2024-02-04T10:19:50;0.82;;;0.10;;
33954;SDS011;20233;50.804;7.126;2024-02-04T10:22:16;0.98;;;0.10;;
33954;SDS011;20233;50.804;7.126;2024-02-04T10:24:44;0.85;;;0.10;;
33954;SDS011;20233;50.804;7.126;2024-02-04T10:27:12;0.20;;;0.00;;
33954;SDS011;20233;50.804;7.126;2024-02-04T10:29:37;0.30;;;0.00;;
33954;SDS011;20233;50.804;7.126;2024-02-04T10:32:03;0.00;;;0.00;;
33954;SDS011;20233;50.804;7.126;2024-02-04T10:34:29;0.10;;;0.00;;
33954;SDS011;20233;50.804;7.126;2024-02-04T10:36:55;1.05;;;0.00;;
33954;SDS011;20233;50.804;7.126;2024-02-04T10:39:21;0.60;;;0.00;;
33954;SDS011;20233;50.804;7.126;2024-02-04T10:41:51;0.75;;;0.10;;
33954;SDS011;20233;50.804;7.126;2024-02-04T10:44:18;0.20;;;0.00;;
33954;SDS011;20233;50.804;7.126;2024-02-04T10:46:47;1.08;;;0.00;;
33954;SDS011;20233;50.804;7.126;2024-02-04T10:49:15;0.40;;;0.00;;
33954;SDS011;20233;50.804;7.126;2024-02-04T10:51:41;0.25;;;0.08;;
33954;SDS011;20233;50.804;7.126;2024-02-04T10:54:07;0.98;;;0.00;;
33954;SDS011;20233;50.804;7.126;2024-02-04T10:56:41;1.08;;;0.00;;
33954;SDS011;20233;50.804;7.126;2024-02-04T10:59:11;0.63;;;0.00;;
33954;SDS011;20233;50.804;7.126;2024-02-04T11:01:39;0.38;;;0.10;;
33954;SDS011;20233;50.804;7.126;2024-02-04T11:04:06;0.57;;;0.00;;
33954;SDS011;20233;50.804;7.126;2024-02-04T11:06:35;0.15;;;0.00;;
33954;SDS011;20233;50.804;7.126;2024-02-04T11:09:01;0.10;;;0.00;;
33954;SDS011;20233;50.804;7.126;2024-02-04T11:11:26;0.98;;;0.00;;
33954;SDS011;20233;50.804;7.126;2024-02-04T11:13:54;0.00;;;0.00;;
33954;SDS011;20233;50.804;7.126;2024-02-04T11:16:46;0.00;;;0.00;;
33954;SDS011;20233;50.804;7.126;2024-02-04T11:24:53;0.10;;;0.00;;
33954;SDS011;20233;50.804;7.126;2024-02-04T11:27:39;0.05;;;0.00;;
33954;SDS011;20233;50.804;7.126;2024-02-04T11:30:06;0.82;;;0.00;;
33954;SDS011;20233;50.804;7.126;2024-02-04T11:32:34;0.20;;;0.00;;
33954;SDS011;20233;50.804;7.126;2024-02-04T11:35:00;2.03;;;0.00;;
33954;SDS011;20233;50.804;7.126;2024-02-04T11:37:27;0.20;;;0.00;;
33954;SDS011;20233;50.804;7.126;2024-02-04T11:39:54;0.30;;;0.00;;
33954;SDS011;20233;50.804;7.126;2024-02-04T11:42:25;0.90;;;0.00;;
33954;SDS011;20233;50.804;7.126;2024-02-04T11:45:09;0.10;;;0.00;;
33954;SDS011;20233;50.804;7.126;2024-02-04T11:47:37;0.47;;;0.10;;
33954;SDS011;20233;50.804;7.126;2024-02-04T11:50:04;0.75;;;0.03;;
33954;SDS011;20233;50.804;7.126;2024-02-04T11:52:30;1.10;;;0.00;;
33954;SDS011;20233;50.804;7.126;2024-02-04T11:54:55;1.83;;;0.00;;
33954;SDS011;20233;50.804;7.126;2024-02-04T11:57:21;0.20;;;0.00;;
33954;SDS011;20233;50.804;7.126;2024-02-04T11:59:48;0.35;;;0.00;;
33954;SDS011;20233;50.804;7.126;2024-02-04T12:02:17;0.32;;;0.00;;
33954;SDS011;20233;50.804;7.126;2024-02-04T12:04:47;0.68;;;0.10;;
33954;SDS011;20233;50.804;7.126;2024-02-04T12:07:13;0.63;;;0.10;;
33954;SDS011;20233;50.804;7.126;2024-02-04T12:09:39;0.98;;;0.10;;
33954;SDS011;20233;50.804;7.126;2024-02-04T12:12:06;0.50;;;0.17;;
33954;SDS011;20233;50.804;7.126;2024-02-04T12:14:33;0.20;;;0.10;;
33954;SDS011;20233;50.804;7.126;2024-02-04T12:17:07;0.30;;;0.10;;
33954;SDS011;20233;50.804;7.126;2024-02-04T12:19:34;0.32;;;0.10;;
33954;SDS011;20233;50.804;7.126;2024-02-04T12:22:01;0.85;;;0.03;;
33954;SDS011;20233;50.804;7.126;2024-02-04T12:24:30;2.05;;;0.10;;
33954;SDS011;20233;50.804;7.126;2024-02-04T12:26:56;0.68;;;0.10;;
33954;SDS011;20233;50.804;7.126;2024-02-04T12:29:23;0.80;;;0.10;;
33954;SDS011;20233;50.804;7.126;2024-02-04T12:31:57;0.40;;;0.00;;
33954;SDS011;20233;50.804;7.126;2024-02-04T12:34:23;0.45;;;0.10;;
33954;SDS011;20233;50.804;7.126;2024-02-04T12:36:57;0.32;;;0.10;;
33954;SDS011;20233;50.804;7.126;2024-02-04T12:39:26;0.32;;;0.00;;
33954;SDS011;20233;50.804;7.126;2024-02-04T12:41:51;0.40;;;0.10;;
33954;SDS011;20233;50.804;7.126;2024-02-04T12:44:17;0.30;;;0.03;;
33954;SDS011;20233;50.804;7.126;2024-02-04T12:46:43;0.20;;;0.00;;
33954;SDS011;20233;50.804;7.126;2024-02-04T12:49:09;0.10;;;0.00;;
33954;SDS011;20233;50.804;7.126;2024-02-04T12:51:36;0.28;;;0.00;;
33954;SDS011;20233;50.804;7.126;2024-02-04T12:54:07;1.00;;;0.35;;
33954;SDS011;20233;50.804;7.126;2024-02-04T12:56:41;0.20;;;0.00;;
33954;SDS011;20233;50.804;7.126;2024-02-04T12:59:10;0.17;;;0.00;;
33954;SDS011;20233;50.804;7.126;2024-02-04T13:01:38;0.03;;;0.00;;
33954;SDS011;20233;50.804;7.126;2024-02-04T13:04:04;0.10;;;0.00;;
33954;SDS011;20233;50.804;7.126;2024-02-04T13:06:30;0.95;;;0.10;;
33954;SDS011;20233;50.804;7.126;2024-02-04T13:08:56;0.13;;;0.00;;
33954;SDS011;20233;50.804;7.126;2024-02-04T13:11:25;0.85;;;0.10;;
33954;SDS011;20233;50.804;7.126;2024-02-04T13:13:51;1.45;;;0.25;;
33954;SDS011;20233;50.804;7.126;2024-02-04T13:16:17;0.93;;;0.20;;
33954;SDS011;20233;50.804;7.126;2024-02-04T13:18:44;0.43;;;0.08;;
33954;SDS011;20233;50.804;7.126;2024-02-04T13:21:16;0.30;;;0.10;;
33954;SDS011;20233;50.804;7.126;2024-02-04T13:23:45;0.20;;;0.10;;
33954;SDS011;20233;50.804;7.126;2024-02-04T13:26:10;0.30;;;0.10;;
33954;SDS011;20233;50.804;7.126;2024-02-04T13:28:36;0.88;;;0.10;;
33954;SDS011;20233;50.804;7.126;2024-02-04T13:31:03;0.60;;;0.10;;
33954;SDS011;20233;50.804;7.126;2024-02-04T13:33:29;0.47;;;0.10;;
33954;SDS011;20233;50.804;7.126;2024-02-04T13:35:55;0.63;;;0.10;;
33954;SDS011;20233;50.804;7.126;2024-02-04T13:38:20;1.00;;;0.20;;
33954;SDS011;20233;50.804;7.126;2024-02-04T13:40:46;1.05;;;0.20;;
33954;SDS011;20233;50.804;7.126;2024-02-04T13:43:11;0.73;;;0.10;;
33954;SDS011;20233;50.804;7.126;2024-02-04T13:45:37;2.13;;;0.28;;
33954;SDS011;20233;50.804;7.126;2024-02-04T13:48:03;0.65;;;0.13;;
33954;SDS011;20233;50.804;7.126;2024-02-04T13:50:28;0.77;;;0.20;;
33954;SDS011;20233;50.804;7.126;2024-02-04T13:52:54;0.98;;;0.10;;
33954;SDS011;20233;50.804;7.126;2024-02-04T13:55:21;1.40;;;0.20;;
33954;SDS011;20233;50.804;7.126;2024-02-04T13:57:47;0.55;;;0.10;;
33954;SDS011;20233;50.804;7.126;2024-02-04T14:00:13;1.38;;;0.10;;
33954;SDS011;20233;50.804;7.126;2024-02-04T14:02:38;0.70;;;0.10;;
33954;SDS011;20233;50.804;7.126;2024-02-04T14:05:04;0.88;;;0.10;;
33954;SDS011;20233;50.804;7.126;2024-02-04T14:07:30;0.40;;;0.10;;
33954;SDS011;20233;50.804;7.126;2024-02-04T14:09:56;1.38;;;0.10;;
33954;SDS011;20233;50.804;7.126;2024-02-04T14:12:22;1.67;;;0.40;;
33954;SDS011;20233;50.804;7.126;2024-02-04T14:14:48;2.50;;;0.95;;
33954;SDS011;20233;50.804;7.126;2024-02-04T14:17:13;0.80;;;0.25;;
33954;SDS011;20233;50.804;7.126;2024-02-04T14:19:39;4.57;;;1.30;;
33954;SDS011;20233;50.804;7.126;2024-02-04T14:22:04;2.55;;;0.75;;
33954;SDS011;20233;50.804;7.126;2024-02-04T14:24:30;4.68;;;1.60;;
33954;SDS011;20233;50.804;7.126;2024-02-04T14:26:56;2.60;;;0.75;;
33954;SDS011;20233;50.804;7.126;2024-02-04T14:29:23;2.13;;;0.88;;
33954;SDS011;20233;50.804;7.126;2024-02-04T14:31:50;4.07;;;0.95;;
33954;SDS011;20233;50.804;7.126;2024-02-04T14:34:15;0.70;;;0.20;;
33954;SDS011;20233;50.804;7.126;2024-02-04T14:36:41;0.90;;;0.30;;
33954;SDS011;20233;50.804;7.126;2024-02-04T14:39:06;1.33;;;0.20;;
33954;SDS011;20233;50.804;7.126;2024-02-04T14:41:36;0.95;;;0.30;;
33954;SDS011;20233;50.804;7.126;2024-02-04T14:44:02;0.47;;;0.20;;
33954;SDS011;20233;50.804;7.126;2024-02-04T14:46:28;0.57;;;0.20;;
33954;SDS011;20233;50.804;7.126;2024-02-04T14:48:53;0.55;;;0.20;;
33954;SDS011;20233;50.804;7.126;2024-02-04T14:51:19;1.70;;;0.25;;